This is the latest recevied weather packets stored in our database for station/object vk4vs. If no packets are shown the sender has not sent any weather packets the latest 10 day(s).
| Time | Temp. | Humidity | Pressure | Rain* | Wind** | Luminosity | Snow |
|---|---|---|---|---|---|---|---|
| 1777388403 | 12.22° C | 97% | 1023.3 hPa | 0 mm | - | - | - |
| 1777386603 | 12.22° C | 96% | 1023.5 hPa | 0 mm | - | - | - |
| 1777384804 | 12.22° C | 96% | 1023.7 hPa | 0 mm | - | - | - |
| 1777383003 | 12.22° C | 96% | 1023.8 hPa | 0 mm | - | - | - |
| 1777381204 | 12.22° C | 97% | 1023.9 hPa | 0 mm | - | - | - |
| 1777379404 | 12.22° C | 96% | 1023.9 hPa | 0 mm | - | - | - |
| 1777377604 | 12.22° C | 96% | 1024 hPa | 0 mm | - | - | - |
| 1777375804 | 12.22° C | 96% | 1023.9 hPa | 0 mm | - | - | - |
| 1777374004 | 12.78° C | 96% | 1023.9 hPa | 0 mm | - | - | - |
| 1777372203 | 12.78° C | 95% | 1023.9 hPa | 0 mm | - | - | - |
| 1777370404 | 13.33° C | 92% | 1023.9 hPa | 0 mm | - | - | - |
| 1777368604 | 13.33° C | 93% | 1023.8 hPa | 0 mm | - | - | - |
| 1777366804 | 12.78° C | 93% | 1023.3 hPa | 0 mm | - | - | - |
| 1777365004 | 12.78° C | 91% | 1022.9 hPa | 0 mm | - | - | - |
| 1777363204 | 13.33° C | 88% | 1022.7 hPa | 0 mm | - | - | - |
| 1777361404 | 14.44° C | 84% | 1022.5 hPa | 0 mm | - | - | - |
| 1777359604 | 15° C | 82% | 1022.3 hPa | 0 mm | - | - | - |
| 1777357804 | 15.56° C | 80% | 1022.2 hPa | 0 mm | - | - | - |
| 1777356004 | 15.56° C | 77% | 1022 hPa | 0 mm | - | - | - |
| 1777354204 | 16.11° C | 77% | 1022 hPa | 0 mm | - | - | - |
| 1777352404 | 16.11° C | 76% | 1021.7 hPa | 0 mm | - | - | - |
| 1777350604 | 16.67° C | 73% | 1021.5 hPa | 0 mm | - | - | - |
| 1777348804 | 16.67° C | 73% | 1021.6 hPa | 0 mm | - | - | - |
| 1777347004 | 16.67° C | 74% | 1021.8 hPa | 0 mm | - | - | - |
| 1777345204 | 17.78° C | 70% | 1021.9 hPa | 0 mm | - | - | - |
* Rain latest hour (hover to see other rain measurements)
** Current wind speed in m/s (hover to see current wind gust speed)